sensor_id;sensor_type;location;lat;lon;timestamp;temperature;humidity
7658;DHT22;8462;53.156;8.220;2022-07-11T00:00:06;17.70;84.00
7658;DHT22;8462;53.156;8.220;2022-07-11T00:02:34;17.70;84.10
7658;DHT22;8462;53.156;8.220;2022-07-11T00:05:04;17.70;84.10
7658;DHT22;8462;53.156;8.220;2022-07-11T00:07:31;17.70;84.30
7658;DHT22;8462;53.156;8.220;2022-07-11T00:09:58;17.70;84.20
7658;DHT22;8462;53.156;8.220;2022-07-11T00:12:27;17.70;84.10
7658;DHT22;8462;53.156;8.220;2022-07-11T00:14:54;17.70;84.20
7658;DHT22;8462;53.156;8.220;2022-07-11T00:17:22;17.70;84.40
7658;DHT22;8462;53.156;8.220;2022-07-11T00:19:49;17.70;84.10
7658;DHT22;8462;53.156;8.220;2022-07-11T00:22:16;17.80;85.20
7658;DHT22;8462;53.156;8.220;2022-07-11T00:24:43;17.80;85.40
7658;DHT22;8462;53.156;8.220;2022-07-11T00:27:10;17.80;84.10
7658;DHT22;8462;53.156;8.220;2022-07-11T00:29:40;17.80;85.10
7658;DHT22;8462;53.156;8.220;2022-07-11T00:32:08;17.70;84.10
7658;DHT22;8462;53.156;8.220;2022-07-11T00:34:35;17.70;84.00
7658;DHT22;8462;53.156;8.220;2022-07-11T00:37:03;17.70;84.30
7658;DHT22;8462;53.156;8.220;2022-07-11T00:39:32;17.60;84.30
7658;DHT22;8462;53.156;8.220;2022-07-11T00:41:59;17.60;84.40
7658;DHT22;8462;53.156;8.220;2022-07-11T00:44:26;17.60;84.30
7658;DHT22;8462;53.156;8.220;2022-07-11T00:46:56;17.60;84.40
7658;DHT22;8462;53.156;8.220;2022-07-11T00:49:23;17.50;84.40
7658;DHT22;8462;53.156;8.220;2022-07-11T00:51:51;17.50;84.40
7658;DHT22;8462;53.156;8.220;2022-07-11T00:54:19;17.50;84.50
7658;DHT22;8462;53.156;8.220;2022-07-11T00:56:50;17.50;84.30
7658;DHT22;8462;53.156;8.220;2022-07-11T00:59:18;17.50;84.40
7658;DHT22;8462;53.156;8.220;2022-07-11T01:01:45;17.50;84.30
7658;DHT22;8462;53.156;8.220;2022-07-11T01:04:13;17.50;84.30
7658;DHT22;8462;53.156;8.220;2022-07-11T01:06:40;17.50;84.40
7658;DHT22;8462;53.156;8.220;2022-07-11T01:09:07;17.50;84.30
7658;DHT22;8462;53.156;8.220;2022-07-11T01:11:34;17.40;84.50
7658;DHT22;8462;53.156;8.220;2022-07-11T01:14:01;17.40;84.50
7658;DHT22;8462;53.156;8.220;2022-07-11T01:16:28;17.50;84.50
7658;DHT22;8462;53.156;8.220;2022-07-11T01:18:56;17.50;84.60
7658;DHT22;8462;53.156;8.220;2022-07-11T01:21:27;17.50;84.60
7658;DHT22;8462;53.156;8.220;2022-07-11T01:23:58;17.50;84.50
7658;DHT22;8462;53.156;8.220;2022-07-11T01:26:26;17.50;84.30
7658;DHT22;8462;53.156;8.220;2022-07-11T01:28:56;17.50;84.20
7658;DHT22;8462;53.156;8.220;2022-07-11T01:31:30;17.50;84.30
7658;DHT22;8462;53.156;8.220;2022-07-11T01:33:57;17.50;84.30
7658;DHT22;8462;53.156;8.220;2022-07-11T01:36:24;17.60;84.30
7658;DHT22;8462;53.156;8.220;2022-07-11T01:38:51;17.60;84.40
7658;DHT22;8462;53.156;8.220;2022-07-11T01:41:20;17.60;84.30
7658;DHT22;8462;53.156;8.220;2022-07-11T01:43:47;17.70;84.20
7658;DHT22;8462;53.156;8.220;2022-07-11T01:46:13;17.70;84.00
7658;DHT22;8462;53.156;8.220;2022-07-11T01:48:40;17.70;84.00
7658;DHT22;8462;53.156;8.220;2022-07-11T01:51:07;17.70;84.00
7658;DHT22;8462;53.156;8.220;2022-07-11T01:53:34;17.60;84.30
7658;DHT22;8462;53.156;8.220;2022-07-11T01:56:01;17.60;83.80
7658;DHT22;8462;53.156;8.220;2022-07-11T01:58:29;17.60;84.00
7658;DHT22;8462;53.156;8.220;2022-07-11T02:00:56;17.60;84.10
7658;DHT22;8462;53.156;8.220;2022-07-11T02:03:23;17.60;84.10
7658;DHT22;8462;53.156;8.220;2022-07-11T02:05:51;17.60;84.30
7658;DHT22;8462;53.156;8.220;2022-07-11T02:08:17;17.60;84.20
7658;DHT22;8462;53.156;8.220;2022-07-11T02:10:46;17.60;84.10
7658;DHT22;8462;53.156;8.220;2022-07-11T02:13:15;17.50;84.20
7658;DHT22;8462;53.156;8.220;2022-07-11T02:15:44;17.50;84.00
7658;DHT22;8462;53.156;8.220;2022-07-11T02:18:12;17.50;84.40
7658;DHT22;8462;53.156;8.220;2022-07-11T02:20:41;17.50;85.10
7658;DHT22;8462;53.156;8.220;2022-07-11T02:23:12;17.50;84.30
7658;DHT22;8462;53.156;8.220;2022-07-11T02:25:39;17.50;84.50
7658;DHT22;8462;53.156;8.220;2022-07-11T02:28:11;17.50;84.50
7658;DHT22;8462;53.156;8.220;2022-07-11T02:30:39;17.50;84.50
7658;DHT22;8462;53.156;8.220;2022-07-11T02:33:08;17.50;84.40
7658;DHT22;8462;53.156;8.220;2022-07-11T02:35:36;17.50;84.40
7658;DHT22;8462;53.156;8.220;2022-07-11T02:38:04;17.60;84.40
7658;DHT22;8462;53.156;8.220;2022-07-11T02:40:36;17.60;83.90
7658;DHT22;8462;53.156;8.220;2022-07-11T02:43:11;17.60;83.90
7658;DHT22;8462;53.156;8.220;2022-07-11T02:45:38;17.60;83.80
7658;DHT22;8462;53.156;8.220;2022-07-11T02:48:08;17.60;83.80
7658;DHT22;8462;53.156;8.220;2022-07-11T02:50:35;17.60;83.90
7658;DHT22;8462;53.156;8.220;2022-07-11T02:53:04;17.60;83.60
7658;DHT22;8462;53.156;8.220;2022-07-11T02:55:30;17.60;83.40
7658;DHT22;8462;53.156;8.220;2022-07-11T02:57:57;17.50;83.70
7658;DHT22;8462;53.156;8.220;2022-07-11T03:00:24;17.50;84.40
7658;DHT22;8462;53.156;8.220;2022-07-11T03:02:52;17.40;84.70
7658;DHT22;8462;53.156;8.220;2022-07-11T03:05:20;17.50;84.90
7658;DHT22;8462;53.156;8.220;2022-07-11T03:07:47;17.50;84.90
7658;DHT22;8462;53.156;8.220;2022-07-11T03:10:19;17.40;85.10
7658;DHT22;8462;53.156;8.220;2022-07-11T03:12:48;17.50;85.30
7658;DHT22;8462;53.156;8.220;2022-07-11T03:15:15;17.40;85.20
7658;DHT22;8462;53.156;8.220;2022-07-11T03:17:42;17.40;85.70
7658;DHT22;8462;53.156;8.220;2022-07-11T03:20:10;17.40;85.80
7658;DHT22;8462;53.156;8.220;2022-07-11T03:22:40;17.40;85.80
7658;DHT22;8462;53.156;8.220;2022-07-11T03:25:08;17.40;85.60
7658;DHT22;8462;53.156;8.220;2022-07-11T03:27:35;17.40;85.60
7658;DHT22;8462;53.156;8.220;2022-07-11T03:30:02;17.40;85.50
7658;DHT22;8462;53.156;8.220;2022-07-11T03:32:32;17.40;85.90
7658;DHT22;8462;53.156;8.220;2022-07-11T03:34:59;17.40;85.80
7658;DHT22;8462;53.156;8.220;2022-07-11T03:37:45;17.40;85.80
7658;DHT22;8462;53.156;8.220;2022-07-11T03:40:12;17.40;86.00
7658;DHT22;8462;53.156;8.220;2022-07-11T03:42:39;17.40;85.80
7658;DHT22;8462;53.156;8.220;2022-07-11T03:45:06;17.40;86.10
7658;DHT22;8462;53.156;8.220;2022-07-11T03:47:34;17.40;85.90
7658;DHT22;8462;53.156;8.220;2022-07-11T03:50:02;17.50;86.00
7658;DHT22;8462;53.156;8.220;2022-07-11T03:52:29;17.50;85.70
7658;DHT22;8462;53.156;8.220;2022-07-11T03:55:03;17.50;85.70
7658;DHT22;8462;53.156;8.220;2022-07-11T03:57:30;17.50;85.80
7658;DHT22;8462;53.156;8.220;2022-07-11T03:59:59;17.50;85.70
7658;DHT22;8462;53.156;8.220;2022-07-11T04:02:33;17.50;85.70
7658;DHT22;8462;53.156;8.220;2022-07-11T04:05:00;17.50;86.20
7658;DHT22;8462;53.156;8.220;2022-07-11T04:07:27;17.60;86.70
7658;DHT22;8462;53.156;8.220;2022-07-11T04:09:55;17.60;86.80
7658;DHT22;8462;53.156;8.220;2022-07-11T04:12:23;17.70;85.70
7658;DHT22;8462;53.156;8.220;2022-07-11T04:14:51;17.70;85.70
7658;DHT22;8462;53.156;8.220;2022-07-11T04:17:18;17.70;85.90
7658;DHT22;8462;53.156;8.220;2022-07-11T04:19:45;17.80;85.60
7658;DHT22;8462;53.156;8.220;2022-07-11T04:22:12;17.80;85.40
7658;DHT22;8462;53.156;8.220;2022-07-11T04:24:39;17.70;85.00
7658;DHT22;8462;53.156;8.220;2022-07-11T04:27:06;17.80;85.00
7658;DHT22;8462;53.156;8.220;2022-07-11T04:29:34;17.70;85.10
7658;DHT22;8462;53.156;8.220;2022-07-11T04:32:01;17.70;85.00
7658;DHT22;8462;53.156;8.220;2022-07-11T04:34:28;17.70;85.20
7658;DHT22;8462;53.156;8.220;2022-07-11T04:36:55;17.70;85.20
7658;DHT22;8462;53.156;8.220;2022-07-11T04:39:22;17.70;85.30
7658;DHT22;8462;53.156;8.220;2022-07-11T04:41:50;17.70;85.10
7658;DHT22;8462;53.156;8.220;2022-07-11T04:44:17;17.60;85.70
7658;DHT22;8462;53.156;8.220;2022-07-11T04:47:09;17.70;86.10
7658;DHT22;8462;53.156;8.220;2022-07-11T04:49:43;17.70;86.10
7658;DHT22;8462;53.156;8.220;2022-07-11T04:52:14;17.70;85.70
7658;DHT22;8462;53.156;8.220;2022-07-11T04:55:07;17.80;85.80
7658;DHT22;8462;53.156;8.220;2022-07-11T04:57:34;17.90;85.70
7658;DHT22;8462;53.156;8.220;2022-07-11T05:00:10;18.00;85.90
7658;DHT22;8462;53.156;8.220;2022-07-11T05:03:03;18.10;86.60
7658;DHT22;8462;53.156;8.220;2022-07-11T05:05:38;18.10;85.00
7658;DHT22;8462;53.156;8.220;2022-07-11T05:08:14;18.20;85.10
7658;DHT22;8462;53.156;8.220;2022-07-11T05:10:51;18.20;84.40
7658;DHT22;8462;53.156;8.220;2022-07-11T05:13:18;18.30;84.10
7658;DHT22;8462;53.156;8.220;2022-07-11T05:15:53;18.30;84.40
7658;DHT22;8462;53.156;8.220;2022-07-11T05:18:24;18.20;84.30
7658;DHT22;8462;53.156;8.220;2022-07-11T05:20:57;18.10;84.30
7658;DHT22;8462;53.156;8.220;2022-07-11T05:23:25;18.10;84.80
7658;DHT22;8462;53.156;8.220;2022-07-11T05:25:52;18.10;84.80
7658;DHT22;8462;53.156;8.220;2022-07-11T05:28:21;18.00;85.00
7658;DHT22;8462;53.156;8.220;2022-07-11T05:30:48;18.10;85.40
7658;DHT22;8462;53.156;8.220;2022-07-11T05:33:18;18.10;85.60
7658;DHT22;8462;53.156;8.220;2022-07-11T05:36:10;18.20;85.70
7658;DHT22;8462;53.156;8.220;2022-07-11T05:39:03;18.30;85.80
7658;DHT22;8462;53.156;8.220;2022-07-11T05:41:54;18.40;85.60
7658;DHT22;8462;53.156;8.220;2022-07-11T05:44:25;18.60;85.20
7658;DHT22;8462;53.156;8.220;2022-07-11T05:46:52;18.60;84.40
7658;DHT22;8462;53.156;8.220;2022-07-11T05:49:22;18.60;84.30
7658;DHT22;8462;53.156;8.220;2022-07-11T05:51:51;18.70;83.90
7658;DHT22;8462;53.156;8.220;2022-07-11T05:54:20;18.80;84.00
7658;DHT22;8462;53.156;8.220;2022-07-11T05:56:57;18.80;85.10
7658;DHT22;8462;53.156;8.220;2022-07-11T05:59:32;18.90;83.80
7658;DHT22;8462;53.156;8.220;2022-07-11T06:02:01;19.00;83.20
7658;DHT22;8462;53.156;8.220;2022-07-11T06:04:54;19.10;83.20
7658;DHT22;8462;53.156;8.220;2022-07-11T06:07:32;19.20;83.10
7658;DHT22;8462;53.156;8.220;2022-07-11T06:10:17;19.20;82.20
7658;DHT22;8462;53.156;8.220;2022-07-11T06:12:44;19.20;81.60
7658;DHT22;8462;53.156;8.220;2022-07-11T06:15:16;19.10;81.10
7658;DHT22;8462;53.156;8.220;2022-07-11T06:17:43;18.90;81.40
7658;DHT22;8462;53.156;8.220;2022-07-11T06:20:11;18.80;81.70
7658;DHT22;8462;53.156;8.220;2022-07-11T06:23:04;18.80;82.10
7658;DHT22;8462;53.156;8.220;2022-07-11T06:25:32;18.70;82.50
7658;DHT22;8462;53.156;8.220;2022-07-11T06:27:59;18.70;82.90
7658;DHT22;8462;53.156;8.220;2022-07-11T06:30:27;18.60;82.90
7658;DHT22;8462;53.156;8.220;2022-07-11T06:32:54;18.60;83.30
7658;DHT22;8462;53.156;8.220;2022-07-11T06:35:22;18.70;83.60
7658;DHT22;8462;53.156;8.220;2022-07-11T06:37:49;18.80;83.40
7658;DHT22;8462;53.156;8.220;2022-07-11T06:40:18;18.80;83.40
7658;DHT22;8462;53.156;8.220;2022-07-11T06:42:45;18.80;84.10
7658;DHT22;8462;53.156;8.220;2022-07-11T06:45:17;19.00;84.40
7658;DHT22;8462;53.156;8.220;2022-07-11T06:47:44;19.20;83.80
7658;DHT22;8462;53.156;8.220;2022-07-11T06:50:11;19.40;83.40
7658;DHT22;8462;53.156;8.220;2022-07-11T06:52:42;19.70;83.40
7658;DHT22;8462;53.156;8.220;2022-07-11T06:55:11;20.00;83.10
7658;DHT22;8462;53.156;8.220;2022-07-11T06:57:40;20.40;80.80
7658;DHT22;8462;53.156;8.220;2022-07-11T07:00:07;20.70;79.30
7658;DHT22;8462;53.156;8.220;2022-07-11T07:02:36;20.90;77.70
7658;DHT22;8462;53.156;8.220;2022-07-11T07:05:04;21.10;76.10
7658;DHT22;8462;53.156;8.220;2022-07-11T07:07:32;21.10;75.10
7658;DHT22;8462;53.156;8.220;2022-07-11T07:10:00;21.10;75.30
7658;DHT22;8462;53.156;8.220;2022-07-11T07:12:27;21.00;74.30
7658;DHT22;8462;53.156;8.220;2022-07-11T07:14:55;20.80;75.00
7658;DHT22;8462;53.156;8.220;2022-07-11T07:17:28;20.80;75.10
7658;DHT22;8462;53.156;8.220;2022-07-11T07:19:56;20.80;74.90
7658;DHT22;8462;53.156;8.220;2022-07-11T07:22:23;20.70;75.40
7658;DHT22;8462;53.156;8.220;2022-07-11T07:24:50;20.60;75.90
7658;DHT22;8462;53.156;8.220;2022-07-11T07:27:17;20.60;76.10
7658;DHT22;8462;53.156;8.220;2022-07-11T07:29:44;20.50;75.20
7658;DHT22;8462;53.156;8.220;2022-07-11T07:32:12;20.40;76.00
7658;DHT22;8462;53.156;8.220;2022-07-11T07:34:39;20.10;76.70
7658;DHT22;8462;53.156;8.220;2022-07-11T07:37:06;20.00;77.30
7658;DHT22;8462;53.156;8.220;2022-07-11T07:39:33;19.90;77.70
7658;DHT22;8462;53.156;8.220;2022-07-11T07:42:00;19.80;78.10
7658;DHT22;8462;53.156;8.220;2022-07-11T07:44:27;19.80;78.60
7658;DHT22;8462;53.156;8.220;2022-07-11T07:46:54;19.70;79.40
7658;DHT22;8462;53.156;8.220;2022-07-11T07:49:23;19.70;79.20
7658;DHT22;8462;53.156;8.220;2022-07-11T07:51:50;19.60;79.60
7658;DHT22;8462;53.156;8.220;2022-07-11T07:54:17;19.60;79.70
7658;DHT22;8462;53.156;8.220;2022-07-11T07:56:44;19.50;80.40
7658;DHT22;8462;53.156;8.220;2022-07-11T07:59:11;19.50;80.20
7658;DHT22;8462;53.156;8.220;2022-07-11T08:01:38;19.50;80.80
7658;DHT22;8462;53.156;8.220;2022-07-11T08:04:08;19.50;81.10
7658;DHT22;8462;53.156;8.220;2022-07-11T08:06:37;19.50;81.90
7658;DHT22;8462;53.156;8.220;2022-07-11T08:09:08;19.70;81.90
7658;DHT22;8462;53.156;8.220;2022-07-11T08:11:35;19.70;81.10
7658;DHT22;8462;53.156;8.220;2022-07-11T08:14:03;19.70;80.70
7658;DHT22;8462;53.156;8.220;2022-07-11T08:16:31;19.80;80.40
7658;DHT22;8462;53.156;8.220;2022-07-11T08:19:00;19.70;80.90
7658;DHT22;8462;53.156;8.220;2022-07-11T08:21:27;19.90;82.30
7658;DHT22;8462;53.156;8.220;2022-07-11T08:23:56;20.20;83.20
7658;DHT22;8462;53.156;8.220;2022-07-11T08:26:23;20.50;81.70
7658;DHT22;8462;53.156;8.220;2022-07-11T08:28:53;20.90;80.50
7658;DHT22;8462;53.156;8.220;2022-07-11T08:31:20;21.40;78.60
7658;DHT22;8462;53.156;8.220;2022-07-11T08:33:47;21.80;76.40
7658;DHT22;8462;53.156;8.220;2022-07-11T08:36:15;22.00;74.70
7658;DHT22;8462;53.156;8.220;2022-07-11T08:38:42;21.80;73.30
7658;DHT22;8462;53.156;8.220;2022-07-11T08:41:14;21.80;74.00
7658;DHT22;8462;53.156;8.220;2022-07-11T08:43:42;21.90;74.50
7658;DHT22;8462;53.156;8.220;2022-07-11T08:46:10;21.90;74.20
7658;DHT22;8462;53.156;8.220;2022-07-11T08:48:41;22.00;73.70
7658;DHT22;8462;53.156;8.220;2022-07-11T08:51:08;21.90;73.50
7658;DHT22;8462;53.156;8.220;2022-07-11T08:53:41;21.80;73.60
7658;DHT22;8462;53.156;8.220;2022-07-11T08:56:10;21.80;73.40
7658;DHT22;8462;53.156;8.220;2022-07-11T08:58:45;21.90;74.30
7658;DHT22;8462;53.156;8.220;2022-07-11T09:01:16;22.00;73.60
7658;DHT22;8462;53.156;8.220;2022-07-11T09:03:44;22.20;73.10
7658;DHT22;8462;53.156;8.220;2022-07-11T09:06:11;22.20;72.40
7658;DHT22;8462;53.156;8.220;2022-07-11T09:08:42;22.20;71.70
7658;DHT22;8462;53.156;8.220;2022-07-11T09:11:09;22.30;71.90
7658;DHT22;8462;53.156;8.220;2022-07-11T09:13:36;22.40;71.70
7658;DHT22;8462;53.156;8.220;2022-07-11T09:16:06;22.60;71.60
7658;DHT22;8462;53.156;8.220;2022-07-11T09:18:35;22.60;70.30
7658;DHT22;8462;53.156;8.220;2022-07-11T09:21:04;22.70;70.70
7658;DHT22;8462;53.156;8.220;2022-07-11T09:23:52;22.70;70.10
7658;DHT22;8462;53.156;8.220;2022-07-11T09:26:38;22.60;69.20
7658;DHT22;8462;53.156;8.220;2022-07-11T09:29:07;22.60;69.80
7658;DHT22;8462;53.156;8.220;2022-07-11T09:31:38;22.80;70.10
7658;DHT22;8462;53.156;8.220;2022-07-11T09:34:07;23.00;69.20
7658;DHT22;8462;53.156;8.220;2022-07-11T09:36:40;23.20;67.90
7658;DHT22;8462;53.156;8.220;2022-07-11T09:39:08;23.40;67.50
7658;DHT22;8462;53.156;8.220;2022-07-11T09:41:36;23.50;66.80
7658;DHT22;8462;53.156;8.220;2022-07-11T09:44:11;23.50;67.10
7658;DHT22;8462;53.156;8.220;2022-07-11T09:46:39;23.40;66.60
7658;DHT22;8462;53.156;8.220;2022-07-11T09:49:07;23.10;67.20
7658;DHT22;8462;53.156;8.220;2022-07-11T09:51:35;22.90;69.10
7658;DHT22;8462;53.156;8.220;2022-07-11T09:54:03;22.90;70.00
7658;DHT22;8462;53.156;8.220;2022-07-11T09:56:39;22.90;69.40
7658;DHT22;8462;53.156;8.220;2022-07-11T09:59:08;22.90;69.40
7658;DHT22;8462;53.156;8.220;2022-07-11T10:01:36;22.90;68.00
7658;DHT22;8462;53.156;8.220;2022-07-11T10:04:07;22.70;68.80
7658;DHT22;8462;53.156;8.220;2022-07-11T10:06:35;22.60;69.40
7658;DHT22;8462;53.156;8.220;2022-07-11T10:09:11;22.50;69.10
7658;DHT22;8462;53.156;8.220;2022-07-11T10:11:38;22.60;69.30
7658;DHT22;8462;53.156;8.220;2022-07-11T10:14:05;22.70;69.00
7658;DHT22;8462;53.156;8.220;2022-07-11T10:16:46;23.00;68.30
7658;DHT22;8462;53.156;8.220;2022-07-11T10:19:25;23.30;67.90
7658;DHT22;8462;53.156;8.220;2022-07-11T10:22:06;23.50;66.70
7658;DHT22;8462;53.156;8.220;2022-07-11T10:24:43;23.60;65.80
7658;DHT22;8462;53.156;8.220;2022-07-11T10:27:18;23.60;65.40
7658;DHT22;8462;53.156;8.220;2022-07-11T10:29:50;23.40;65.40
7658;DHT22;8462;53.156;8.220;2022-07-11T10:32:17;23.10;66.10
7658;DHT22;8462;53.156;8.220;2022-07-11T10:34:46;22.80;67.80
7658;DHT22;8462;53.156;8.220;2022-07-11T10:37:45;22.40;69.30
7658;DHT22;8462;53.156;8.220;2022-07-11T10:40:40;22.00;71.30
7658;DHT22;8462;53.156;8.220;2022-07-11T10:43:07;21.70;73.70
7658;DHT22;8462;53.156;8.220;2022-07-11T10:45:49;21.40;75.80
7658;DHT22;8462;53.156;8.220;2022-07-11T10:48:16;21.20;75.90
7658;DHT22;8462;53.156;8.220;2022-07-11T10:50:46;21.00;76.80
7658;DHT22;8462;53.156;8.220;2022-07-11T10:53:23;21.00;78.30
7658;DHT22;8462;53.156;8.220;2022-07-11T10:55:59;21.10;78.20
7658;DHT22;8462;53.156;8.220;2022-07-11T10:58:30;21.10;78.80
7658;DHT22;8462;53.156;8.220;2022-07-11T11:01:10;21.20;79.00
7658;DHT22;8462;53.156;8.220;2022-07-11T11:03:38;21.30;77.80
7658;DHT22;8462;53.156;8.220;2022-07-11T11:06:07;21.20;77.70
7658;DHT22;8462;53.156;8.220;2022-07-11T11:08:44;21.20;76.50
7658;DHT22;8462;53.156;8.220;2022-07-11T11:11:34;21.10;76.20
7658;DHT22;8462;53.156;8.220;2022-07-11T11:14:20;21.00;75.80
7658;DHT22;8462;53.156;8.220;2022-07-11T11:16:48;20.80;76.70
7658;DHT22;8462;53.156;8.220;2022-07-11T11:19:49;20.80;77.20
7658;DHT22;8462;53.156;8.220;2022-07-11T11:22:18;20.80;77.20
7658;DHT22;8462;53.156;8.220;2022-07-11T11:24:47;20.80;77.90
7658;DHT22;8462;53.156;8.220;2022-07-11T11:27:18;21.00;79.20
7658;DHT22;8462;53.156;8.220;2022-07-11T11:29:52;21.30;78.90
7658;DHT22;8462;53.156;8.220;2022-07-11T11:32:21;21.40;77.50
7658;DHT22;8462;53.156;8.220;2022-07-11T11:34:48;21.50;76.70
7658;DHT22;8462;53.156;8.220;2022-07-11T11:37:17;21.50;76.30
7658;DHT22;8462;53.156;8.220;2022-07-11T11:39:45;21.50;75.80
7658;DHT22;8462;53.156;8.220;2022-07-11T11:42:15;21.40;75.80
7658;DHT22;8462;53.156;8.220;2022-07-11T11:44:51;21.40;76.10
7658;DHT22;8462;53.156;8.220;2022-07-11T11:47:20;21.20;75.30
7658;DHT22;8462;53.156;8.220;2022-07-11T11:49:47;21.10;75.70
7658;DHT22;8462;53.156;8.220;2022-07-11T11:52:16;20.80;75.90
7658;DHT22;8462;53.156;8.220;2022-07-11T11:54:56;20.70;77.10
7658;DHT22;8462;53.156;8.220;2022-07-11T11:57:25;20.60;78.00
7658;DHT22;8462;53.156;8.220;2022-07-11T11:59:53;20.70;78.40
7658;DHT22;8462;53.156;8.220;2022-07-11T12:02:25;20.80;78.80
7658;DHT22;8462;53.156;8.220;2022-07-11T12:04:52;21.00;78.60
7658;DHT22;8462;53.156;8.220;2022-07-11T12:07:25;21.30;77.90
7658;DHT22;8462;53.156;8.220;2022-07-11T12:09:58;21.70;78.40
7658;DHT22;8462;53.156;8.220;2022-07-11T12:12:28;22.20;76.10
7658;DHT22;8462;53.156;8.220;2022-07-11T12:15:27;22.70;74.70
7658;DHT22;8462;53.156;8.220;2022-07-11T12:17:58;23.10;71.80
7658;DHT22;8462;53.156;8.220;2022-07-11T12:20:37;23.30;69.70
7658;DHT22;8462;53.156;8.220;2022-07-11T12:23:12;23.50;70.00
7658;DHT22;8462;53.156;8.220;2022-07-11T12:25:39;23.70;69.20
7658;DHT22;8462;53.156;8.220;2022-07-11T12:28:13;23.90;67.50
7658;DHT22;8462;53.156;8.220;2022-07-11T12:30:41;24.10;66.00
7658;DHT22;8462;53.156;8.220;2022-07-11T12:33:12;24.30;66.30
7658;DHT22;8462;53.156;8.220;2022-07-11T12:35:56;24.50;65.70
7658;DHT22;8462;53.156;8.220;2022-07-11T12:41:08;24.50;64.40
7658;DHT22;8462;53.156;8.220;2022-07-11T12:43:43;24.30;64.40
7658;DHT22;8462;53.156;8.220;2022-07-11T12:46:29;24.20;64.20
7658;DHT22;8462;53.156;8.220;2022-07-11T12:48:56;24.10;64.80
7658;DHT22;8462;53.156;8.220;2022-07-11T12:51:29;24.00;63.50
7658;DHT22;8462;53.156;8.220;2022-07-11T12:54:02;23.80;64.80
7658;DHT22;8462;53.156;8.220;2022-07-11T12:56:29;23.70;64.50
7658;DHT22;8462;53.156;8.220;2022-07-11T12:58:56;23.50;64.80
7658;DHT22;8462;53.156;8.220;2022-07-11T13:01:24;23.40;65.60
7658;DHT22;8462;53.156;8.220;2022-07-11T13:03:51;23.40;65.60
7658;DHT22;8462;53.156;8.220;2022-07-11T13:06:18;23.30;65.90
7658;DHT22;8462;53.156;8.220;2022-07-11T13:09:07;23.40;66.70
7658;DHT22;8462;53.156;8.220;2022-07-11T13:11:34;23.60;66.00
7658;DHT22;8462;53.156;8.220;2022-07-11T13:14:03;23.70;66.10
7658;DHT22;8462;53.156;8.220;2022-07-11T13:16:50;23.90;65.60
7658;DHT22;8462;53.156;8.220;2022-07-11T13:19:17;24.10;64.50
7658;DHT22;8462;53.156;8.220;2022-07-11T13:21:44;24.10;63.40
7658;DHT22;8462;53.156;8.220;2022-07-11T13:24:12;24.10;64.50
7658;DHT22;8462;53.156;8.220;2022-07-11T13:26:39;24.20;63.00
7658;DHT22;8462;53.156;8.220;2022-07-11T13:29:06;24.30;63.60
7658;DHT22;8462;53.156;8.220;2022-07-11T13:31:33;24.50;62.70
7658;DHT22;8462;53.156;8.220;2022-07-11T13:34:00;24.50;62.30
7658;DHT22;8462;53.156;8.220;2022-07-11T13:36:28;24.40;62.10
7658;DHT22;8462;53.156;8.220;2022-07-11T13:38:57;24.30;62.70
7658;DHT22;8462;53.156;8.220;2022-07-11T13:41:27;24.30;63.30
7658;DHT22;8462;53.156;8.220;2022-07-11T13:43:54;24.30;62.90
7658;DHT22;8462;53.156;8.220;2022-07-11T13:46:21;24.40;63.00
7658;DHT22;8462;53.156;8.220;2022-07-11T13:48:48;24.60;63.10
7658;DHT22;8462;53.156;8.220;2022-07-11T13:51:14;24.70;62.60
7658;DHT22;8462;53.156;8.220;2022-07-11T13:53:41;24.70;61.70
7658;DHT22;8462;53.156;8.220;2022-07-11T13:56:10;24.70;60.80
7658;DHT22;8462;53.156;8.220;2022-07-11T13:58:43;24.60;61.20
7658;DHT22;8462;53.156;8.220;2022-07-11T14:01:10;24.50;61.00
7658;DHT22;8462;53.156;8.220;2022-07-11T14:03:37;24.40;61.60
7658;DHT22;8462;53.156;8.220;2022-07-11T14:06:05;24.30;61.80
7658;DHT22;8462;53.156;8.220;2022-07-11T14:08:33;24.20;62.40
7658;DHT22;8462;53.156;8.220;2022-07-11T14:11:01;24.20;62.80
7658;DHT22;8462;53.156;8.220;2022-07-11T14:13:28;24.30;62.70
7658;DHT22;8462;53.156;8.220;2022-07-11T14:15:56;24.40;63.80
7658;DHT22;8462;53.156;8.220;2022-07-11T14:18:27;24.50;62.50
7658;DHT22;8462;53.156;8.220;2022-07-11T14:20:54;24.40;62.70
7658;DHT22;8462;53.156;8.220;2022-07-11T14:23:21;24.40;62.50
7658;DHT22;8462;53.156;8.220;2022-07-11T14:25:50;24.40;62.40
7658;DHT22;8462;53.156;8.220;2022-07-11T14:28:17;24.20;62.40
7658;DHT22;8462;53.156;8.220;2022-07-11T14:30:45;24.10;62.60
7658;DHT22;8462;53.156;8.220;2022-07-11T14:33:13;24.00;62.60
7658;DHT22;8462;53.156;8.220;2022-07-11T14:35:40;24.00;63.20
7658;DHT22;8462;53.156;8.220;2022-07-11T14:38:07;24.00;63.40
7658;DHT22;8462;53.156;8.220;2022-07-11T14:40:34;24.00;62.90
7658;DHT22;8462;53.156;8.220;2022-07-11T14:43:02;24.00;63.40
7658;DHT22;8462;53.156;8.220;2022-07-11T14:45:29;24.10;63.60
7658;DHT22;8462;53.156;8.220;2022-07-11T14:47:57;24.10;63.10
7658;DHT22;8462;53.156;8.220;2022-07-11T14:50:25;24.00;62.50
7658;DHT22;8462;53.156;8.220;2022-07-11T14:52:53;23.90;63.30
7658;DHT22;8462;53.156;8.220;2022-07-11T14:55:20;24.10;63.50
7658;DHT22;8462;53.156;8.220;2022-07-11T14:57:50;24.20;63.00
7658;DHT22;8462;53.156;8.220;2022-07-11T15:00:17;24.10;62.00
7658;DHT22;8462;53.156;8.220;2022-07-11T15:02:45;24.00;63.10
7658;DHT22;8462;53.156;8.220;2022-07-11T15:05:31;23.90;63.30
7658;DHT22;8462;53.156;8.220;2022-07-11T15:07:58;23.80;63.50
7658;DHT22;8462;53.156;8.220;2022-07-11T15:10:43;23.70;64.20
7658;DHT22;8462;53.156;8.220;2022-07-11T15:13:27;23.70;64.50
7658;DHT22;8462;53.156;8.220;2022-07-11T15:15:54;23.90;64.30
7658;DHT22;8462;53.156;8.220;2022-07-11T15:18:21;24.10;63.60
7658;DHT22;8462;53.156;8.220;2022-07-11T15:20:50;24.20;63.00
7658;DHT22;8462;53.156;8.220;2022-07-11T15:23:17;24.40;62.10
7658;DHT22;8462;53.156;8.220;2022-07-11T15:25:44;24.30;62.20
7658;DHT22;8462;53.156;8.220;2022-07-11T15:28:13;24.20;62.60
7658;DHT22;8462;53.156;8.220;2022-07-11T15:30:40;24.10;62.90
7658;DHT22;8462;53.156;8.220;2022-07-11T15:33:07;24.00;63.30
7658;DHT22;8462;53.156;8.220;2022-07-11T15:35:34;23.90;63.20
7658;DHT22;8462;53.156;8.220;2022-07-11T15:38:02;23.90;63.40
7658;DHT22;8462;53.156;8.220;2022-07-11T15:40:29;24.00;63.00
7658;DHT22;8462;53.156;8.220;2022-07-11T15:42:58;24.00;63.10
7658;DHT22;8462;53.156;8.220;2022-07-11T15:45:25;24.00;63.10
7658;DHT22;8462;53.156;8.220;2022-07-11T15:47:52;23.90;63.40
7658;DHT22;8462;53.156;8.220;2022-07-11T15:50:19;23.80;63.10
7658;DHT22;8462;53.156;8.220;2022-07-11T15:52:48;23.70;63.50
7658;DHT22;8462;53.156;8.220;2022-07-11T15:55:16;23.70;64.00
7658;DHT22;8462;53.156;8.220;2022-07-11T15:57:43;23.70;63.80
7658;DHT22;8462;53.156;8.220;2022-07-11T16:00:13;23.60;64.10
7658;DHT22;8462;53.156;8.220;2022-07-11T16:02:40;23.60;64.60
7658;DHT22;8462;53.156;8.220;2022-07-11T16:05:07;23.50;64.50
7658;DHT22;8462;53.156;8.220;2022-07-11T16:07:37;23.40;64.40
7658;DHT22;8462;53.156;8.220;2022-07-11T16:10:05;23.40;65.00
7658;DHT22;8462;53.156;8.220;2022-07-11T16:12:34;23.30;64.80
7658;DHT22;8462;53.156;8.220;2022-07-11T16:15:05;23.40;65.20
7658;DHT22;8462;53.156;8.220;2022-07-11T16:17:32;23.40;64.50
7658;DHT22;8462;53.156;8.220;2022-07-11T16:20:03;23.40;63.60
7658;DHT22;8462;53.156;8.220;2022-07-11T16:22:32;23.30;63.50